sensor_id;sensor_type;location;lat;lon;timestamp;temperature;humidity
2100;DHT22;1055;48.854;9.302;2022-11-11T00:00:28;6.30;99.90
2100;DHT22;1055;48.854;9.302;2022-11-11T00:02:55;6.00;99.90
2100;DHT22;1055;48.854;9.302;2022-11-11T00:05:21;6.00;99.90
2100;DHT22;1055;48.854;9.302;2022-11-11T00:07:47;6.00;99.90
2100;DHT22;1055;48.854;9.302;2022-11-11T00:10:13;6.10;99.90
2100;DHT22;1055;48.854;9.302;2022-11-11T00:12:39;6.00;99.90
2100;DHT22;1055;48.854;9.302;2022-11-11T00:15:05;6.00;99.90
2100;DHT22;1055;48.854;9.302;2022-11-11T00:17:32;6.00;99.90
2100;DHT22;1055;48.854;9.302;2022-11-11T00:20:17;5.90;99.90
2100;DHT22;1055;48.854;9.302;2022-11-11T00:23:02;5.90;99.90
2100;DHT22;1055;48.854;9.302;2022-11-11T00:25:51;5.90;99.90
2100;DHT22;1055;48.854;9.302;2022-11-11T00:28:16;6.00;99.90
2100;DHT22;1055;48.854;9.302;2022-11-11T00:30:42;6.00;99.90
2100;DHT22;1055;48.854;9.302;2022-11-11T00:33:07;6.10;99.90
2100;DHT22;1055;48.854;9.302;2022-11-11T00:35:33;5.90;99.90
2100;DHT22;1055;48.854;9.302;2022-11-11T00:38:18;5.80;99.90
2100;DHT22;1055;48.854;9.302;2022-11-11T00:41:02;5.90;99.90
2100;DHT22;1055;48.854;9.302;2022-11-11T00:43:28;5.80;99.90
2100;DHT22;1055;48.854;9.302;2022-11-11T00:45:54;5.80;99.90
2100;DHT22;1055;48.854;9.302;2022-11-11T00:48:39;5.90;99.90
2100;DHT22;1055;48.854;9.302;2022-11-11T00:51:23;5.50;99.90
2100;DHT22;1055;48.854;9.302;2022-11-11T00:53:49;5.30;99.90
2100;DHT22;1055;48.854;9.302;2022-11-11T00:56:15;5.20;99.90
2100;DHT22;1055;48.854;9.302;2022-11-11T00:58:40;5.30;99.90
2100;DHT22;1055;48.854;9.302;2022-11-11T01:01:06;5.20;99.90
2100;DHT22;1055;48.854;9.302;2022-11-11T01:03:32;5.30;99.90
2100;DHT22;1055;48.854;9.302;2022-11-11T01:06:01;5.30;99.90
2100;DHT22;1055;48.854;9.302;2022-11-11T01:08:27;5.30;99.90
2100;DHT22;1055;48.854;9.302;2022-11-11T01:10:53;5.20;99.90
2100;DHT22;1055;48.854;9.302;2022-11-11T01:13:31;5.20;99.90
2100;DHT22;1055;48.854;9.302;2022-11-11T01:16:02;5.10;99.90
2100;DHT22;1055;48.854;9.302;2022-11-11T01:18:27;5.10;99.90
2100;DHT22;1055;48.854;9.302;2022-11-11T01:20:58;5.10;99.90
2100;DHT22;1055;48.854;9.302;2022-11-11T01:23:24;5.20;99.90
2100;DHT22;1055;48.854;9.302;2022-11-11T01:25:49;5.30;99.90
2100;DHT22;1055;48.854;9.302;2022-11-11T01:28:17;5.50;99.90
2100;DHT22;1055;48.854;9.302;2022-11-11T01:30:42;5.40;99.90
2100;DHT22;1055;48.854;9.302;2022-11-11T01:33:09;5.50;99.90
2100;DHT22;1055;48.854;9.302;2022-11-11T01:35:39;5.80;99.90
2100;DHT22;1055;48.854;9.302;2022-11-11T01:38:04;5.80;99.90
2100;DHT22;1055;48.854;9.302;2022-11-11T01:40:30;5.90;99.90
2100;DHT22;1055;48.854;9.302;2022-11-11T01:53:59;5.10;99.90
2100;DHT22;1055;48.854;9.302;2022-11-11T01:56:26;5.20;99.90
2100;DHT22;1055;48.854;9.302;2022-11-11T01:58:56;5.20;99.90
2100;DHT22;1055;48.854;9.302;2022-11-11T02:01:22;5.20;99.90
2100;DHT22;1055;48.854;9.302;2022-11-11T02:03:49;5.50;99.90
2100;DHT22;1055;48.854;9.302;2022-11-11T02:06:35;5.50;99.90
2100;DHT22;1055;48.854;9.302;2022-11-11T02:09:01;5.50;99.90
2100;DHT22;1055;48.854;9.302;2022-11-11T02:11:27;5.60;99.90
2100;DHT22;1055;48.854;9.302;2022-11-11T02:14:12;5.20;99.90
2100;DHT22;1055;48.854;9.302;2022-11-11T02:16:56;5.00;99.90
2100;DHT22;1055;48.854;9.302;2022-11-11T02:19:34;5.20;99.90
2100;DHT22;1055;48.854;9.302;2022-11-11T02:22:05;5.20;99.90
2100;DHT22;1055;48.854;9.302;2022-11-11T02:24:32;5.50;99.90
2100;DHT22;1055;48.854;9.302;2022-11-11T02:27:00;5.70;99.90
2100;DHT22;1055;48.854;9.302;2022-11-11T02:29:27;5.60;99.90
2100;DHT22;1055;48.854;9.302;2022-11-11T02:31:54;5.80;99.90
2100;DHT22;1055;48.854;9.302;2022-11-11T02:34:32;5.90;99.90
2100;DHT22;1055;48.854;9.302;2022-11-11T02:36:59;5.70;99.90
2100;DHT22;1055;48.854;9.302;2022-11-11T02:39:25;5.10;99.90
2100;DHT22;1055;48.854;9.302;2022-11-11T02:41:51;5.00;99.90
2100;DHT22;1055;48.854;9.302;2022-11-11T02:44:26;5.00;99.90
2100;DHT22;1055;48.854;9.302;2022-11-11T02:46:52;4.90;99.90
2100;DHT22;1055;48.854;9.302;2022-11-11T02:49:18;4.80;99.90
2100;DHT22;1055;48.854;9.302;2022-11-11T02:51:43;4.80;99.90
2100;DHT22;1055;48.854;9.302;2022-11-11T02:54:09;4.80;99.90
2100;DHT22;1055;48.854;9.302;2022-11-11T02:56:35;4.80;99.90
2100;DHT22;1055;48.854;9.302;2022-11-11T02:59:19;4.90;99.90
2100;DHT22;1055;48.854;9.302;2022-11-11T03:01:46;4.70;99.90
2100;DHT22;1055;48.854;9.302;2022-11-11T03:04:12;4.70;99.90
2100;DHT22;1055;48.854;9.302;2022-11-11T03:06:37;4.60;99.90
2100;DHT22;1055;48.854;9.302;2022-11-11T03:09:03;4.50;99.90
2100;DHT22;1055;48.854;9.302;2022-11-11T03:11:29;4.50;99.90
2100;DHT22;1055;48.854;9.302;2022-11-11T03:13:56;4.40;99.90
2100;DHT22;1055;48.854;9.302;2022-11-11T03:16:22;4.50;99.90
2100;DHT22;1055;48.854;9.302;2022-11-11T03:19:07;4.60;99.90
2100;DHT22;1055;48.854;9.302;2022-11-11T03:21:32;4.80;99.90
2100;DHT22;1055;48.854;9.302;2022-11-11T03:23:58;4.90;99.90
2100;DHT22;1055;48.854;9.302;2022-11-11T03:26:24;4.90;99.90
2100;DHT22;1055;48.854;9.302;2022-11-11T03:28:49;5.00;99.90
2100;DHT22;1055;48.854;9.302;2022-11-11T03:31:15;4.90;99.90
2100;DHT22;1055;48.854;9.302;2022-11-11T03:33:41;4.90;99.90
2100;DHT22;1055;48.854;9.302;2022-11-11T03:36:07;5.00;99.90
2100;DHT22;1055;48.854;9.302;2022-11-11T03:38:33;5.00;99.90
2100;DHT22;1055;48.854;9.302;2022-11-11T03:40:58;4.90;99.90
2100;DHT22;1055;48.854;9.302;2022-11-11T03:43:26;5.00;99.90
2100;DHT22;1055;48.854;9.302;2022-11-11T03:45:54;5.10;99.90
2100;DHT22;1055;48.854;9.302;2022-11-11T03:48:21;5.20;99.90
2100;DHT22;1055;48.854;9.302;2022-11-11T03:50:47;5.00;99.90
2100;DHT22;1055;48.854;9.302;2022-11-11T03:53:14;5.00;99.90
2100;DHT22;1055;48.854;9.302;2022-11-11T03:55:40;5.00;99.90
2100;DHT22;1055;48.854;9.302;2022-11-11T03:58:06;5.10;99.90
2100;DHT22;1055;48.854;9.302;2022-11-11T04:00:32;4.90;99.90
2100;DHT22;1055;48.854;9.302;2022-11-11T04:03:03;4.80;99.90
2100;DHT22;1055;48.854;9.302;2022-11-11T04:05:47;5.00;99.90
2100;DHT22;1055;48.854;9.302;2022-11-11T04:08:32;5.10;99.90
2100;DHT22;1055;48.854;9.302;2022-11-11T04:11:31;5.10;99.90
2100;DHT22;1055;48.854;9.302;2022-11-11T04:14:00;5.10;99.90
2100;DHT22;1055;48.854;9.302;2022-11-11T04:16:46;5.40;99.90
2100;DHT22;1055;48.854;9.302;2022-11-11T04:19:11;5.60;99.90
2100;DHT22;1055;48.854;9.302;2022-11-11T04:22:00;5.60;99.90
2100;DHT22;1055;48.854;9.302;2022-11-11T04:24:26;5.10;99.90
2100;DHT22;1055;48.854;9.302;2022-11-11T04:27:15;4.90;99.90
2100;DHT22;1055;48.854;9.302;2022-11-11T04:29:47;4.70;99.90
2100;DHT22;1055;48.854;9.302;2022-11-11T04:32:18;4.50;99.90
2100;DHT22;1055;48.854;9.302;2022-11-11T04:35:13;4.60;99.90
2100;DHT22;1055;48.854;9.302;2022-11-11T04:37:49;4.50;99.90
2100;DHT22;1055;48.854;9.302;2022-11-11T04:40:19;4.50;99.90
2100;DHT22;1055;48.854;9.302;2022-11-11T04:43:08;4.50;99.90
2100;DHT22;1055;48.854;9.302;2022-11-11T04:45:37;4.40;99.90
2100;DHT22;1055;48.854;9.302;2022-11-11T04:48:09;4.30;99.90
2100;DHT22;1055;48.854;9.302;2022-11-11T04:50:41;4.30;99.90
2100;DHT22;1055;48.854;9.302;2022-11-11T04:53:12;4.50;99.90
2100;DHT22;1055;48.854;9.302;2022-11-11T04:55:39;4.80;99.90
2100;DHT22;1055;48.854;9.302;2022-11-11T04:58:25;5.00;99.90
2100;DHT22;1055;48.854;9.302;2022-11-11T05:00:51;5.30;99.90
2100;DHT22;1055;48.854;9.302;2022-11-11T05:03:18;5.30;99.90
2100;DHT22;1055;48.854;9.302;2022-11-11T05:08:30;5.60;99.90
2100;DHT22;1055;48.854;9.302;2022-11-11T05:11:14;5.70;99.90
2100;DHT22;1055;48.854;9.302;2022-11-11T05:13:40;5.70;99.90
2100;DHT22;1055;48.854;9.302;2022-11-11T05:16:28;5.60;99.90
2100;DHT22;1055;48.854;9.302;2022-11-11T05:19:14;5.60;99.90
2100;DHT22;1055;48.854;9.302;2022-11-11T05:24:45;6.00;99.90
2100;DHT22;1055;48.854;9.302;2022-11-11T05:27:29;5.90;99.90
2100;DHT22;1055;48.854;9.302;2022-11-11T05:29:55;5.40;99.90
2100;DHT22;1055;48.854;9.302;2022-11-11T05:32:22;5.30;99.90
2100;DHT22;1055;48.854;9.302;2022-11-11T05:34:48;5.20;99.90
2100;DHT22;1055;48.854;9.302;2022-11-11T05:37:14;4.80;99.90
2100;DHT22;1055;48.854;9.302;2022-11-11T05:39:40;4.50;99.90
2100;DHT22;1055;48.854;9.302;2022-11-11T05:42:06;4.40;99.90
2100;DHT22;1055;48.854;9.302;2022-11-11T05:44:32;4.60;99.90
2100;DHT22;1055;48.854;9.302;2022-11-11T05:46:58;4.30;99.90
2100;DHT22;1055;48.854;9.302;2022-11-11T05:49:24;4.40;99.90
2100;DHT22;1055;48.854;9.302;2022-11-11T05:51:50;4.20;99.90
2100;DHT22;1055;48.854;9.302;2022-11-11T05:54:16;4.10;99.90
2100;DHT22;1055;48.854;9.302;2022-11-11T05:56:42;4.10;99.90
2100;DHT22;1055;48.854;9.302;2022-11-11T05:59:08;4.10;99.90
2100;DHT22;1055;48.854;9.302;2022-11-11T06:01:35;4.00;99.90
2100;DHT22;1055;48.854;9.302;2022-11-11T06:04:01;4.00;99.90
2100;DHT22;1055;48.854;9.302;2022-11-11T06:06:27;4.10;99.90
2100;DHT22;1055;48.854;9.302;2022-11-11T06:08:53;4.30;99.90
2100;DHT22;1055;48.854;9.302;2022-11-11T06:11:19;4.20;99.90
2100;DHT22;1055;48.854;9.302;2022-11-11T06:13:45;4.10;99.90
2100;DHT22;1055;48.854;9.302;2022-11-11T06:16:10;3.90;99.90
2100;DHT22;1055;48.854;9.302;2022-11-11T06:18:36;3.80;99.90
2100;DHT22;1055;48.854;9.302;2022-11-11T06:21:02;3.80;99.90
2100;DHT22;1055;48.854;9.302;2022-11-11T06:23:28;3.70;99.90
2100;DHT22;1055;48.854;9.302;2022-11-11T06:25:54;3.70;99.90
2100;DHT22;1055;48.854;9.302;2022-11-11T06:28:48;3.80;99.90
2100;DHT22;1055;48.854;9.302;2022-11-11T06:31:20;3.70;99.90
2100;DHT22;1055;48.854;9.302;2022-11-11T06:33:46;3.70;99.90
2100;DHT22;1055;48.854;9.302;2022-11-11T06:36:13;3.80;99.90
2100;DHT22;1055;48.854;9.302;2022-11-11T06:38:40;3.80;99.90
2100;DHT22;1055;48.854;9.302;2022-11-11T06:41:07;3.80;99.90
2100;DHT22;1055;48.854;9.302;2022-11-11T06:43:33;3.80;99.90
2100;DHT22;1055;48.854;9.302;2022-11-11T06:45:59;3.90;99.90
2100;DHT22;1055;48.854;9.302;2022-11-11T06:48:26;3.90;99.90
2100;DHT22;1055;48.854;9.302;2022-11-11T06:50:52;4.00;99.90
2100;DHT22;1055;48.854;9.302;2022-11-11T06:53:19;4.10;99.90
2100;DHT22;1055;48.854;9.302;2022-11-11T06:55:45;4.10;99.90
2100;DHT22;1055;48.854;9.302;2022-11-11T06:58:16;4.00;99.90
2100;DHT22;1055;48.854;9.302;2022-11-11T07:00:43;4.00;99.90
2100;DHT22;1055;48.854;9.302;2022-11-11T07:03:14;3.90;99.90
2100;DHT22;1055;48.854;9.302;2022-11-11T07:05:41;3.90;99.90
2100;DHT22;1055;48.854;9.302;2022-11-11T07:08:17;3.80;99.90
2100;DHT22;1055;48.854;9.302;2022-11-11T07:10:47;3.90;99.90
2100;DHT22;1055;48.854;9.302;2022-11-11T07:13:14;4.00;99.90
2100;DHT22;1055;48.854;9.302;2022-11-11T07:15:43;4.10;99.90
2100;DHT22;1055;48.854;9.302;2022-11-11T07:18:09;4.20;99.90
2100;DHT22;1055;48.854;9.302;2022-11-11T07:20:35;4.30;99.90
2100;DHT22;1055;48.854;9.302;2022-11-11T07:23:02;4.40;99.90
2100;DHT22;1055;48.854;9.302;2022-11-11T07:25:27;4.70;99.90
2100;DHT22;1055;48.854;9.302;2022-11-11T07:27:53;5.00;99.90
2100;DHT22;1055;48.854;9.302;2022-11-11T07:30:19;4.90;99.90
2100;DHT22;1055;48.854;9.302;2022-11-11T07:32:46;5.10;99.90
2100;DHT22;1055;48.854;9.302;2022-11-11T07:35:13;5.00;99.90
2100;DHT22;1055;48.854;9.302;2022-11-11T07:37:39;4.90;99.90
2100;DHT22;1055;48.854;9.302;2022-11-11T07:40:05;5.00;99.90
2100;DHT22;1055;48.854;9.302;2022-11-11T07:42:31;5.20;99.90
2100;DHT22;1055;48.854;9.302;2022-11-11T07:44:56;5.30;99.90
2100;DHT22;1055;48.854;9.302;2022-11-11T07:47:22;5.40;99.90
2100;DHT22;1055;48.854;9.302;2022-11-11T07:49:48;5.40;99.90
2100;DHT22;1055;48.854;9.302;2022-11-11T07:52:13;5.60;99.90
2100;DHT22;1055;48.854;9.302;2022-11-11T07:54:39;5.60;99.90
2100;DHT22;1055;48.854;9.302;2022-11-11T07:57:04;5.70;99.90
2100;DHT22;1055;48.854;9.302;2022-11-11T07:59:30;5.90;99.90
2100;DHT22;1055;48.854;9.302;2022-11-11T08:01:55;6.00;99.90
2100;DHT22;1055;48.854;9.302;2022-11-11T08:04:21;6.00;99.90
2100;DHT22;1055;48.854;9.302;2022-11-11T08:06:47;6.00;99.90
2100;DHT22;1055;48.854;9.302;2022-11-11T08:09:12;6.00;99.90
2100;DHT22;1055;48.854;9.302;2022-11-11T08:11:38;6.10;99.90
2100;DHT22;1055;48.854;9.302;2022-11-11T08:14:22;5.90;99.90
2100;DHT22;1055;48.854;9.302;2022-11-11T08:16:48;6.10;99.90
2100;DHT22;1055;48.854;9.302;2022-11-11T08:19:13;6.30;99.90
2100;DHT22;1055;48.854;9.302;2022-11-11T08:21:39;6.40;99.90
2100;DHT22;1055;48.854;9.302;2022-11-11T08:24:05;6.60;99.90
2100;DHT22;1055;48.854;9.302;2022-11-11T08:26:33;6.50;99.90
2100;DHT22;1055;48.854;9.302;2022-11-11T08:28:58;6.80;99.90
2100;DHT22;1055;48.854;9.302;2022-11-11T08:31:24;6.70;99.90
2100;DHT22;1055;48.854;9.302;2022-11-11T08:33:50;6.80;99.90
2100;DHT22;1055;48.854;9.302;2022-11-11T08:36:15;6.60;99.90
2100;DHT22;1055;48.854;9.302;2022-11-11T08:38:41;6.50;99.90
2100;DHT22;1055;48.854;9.302;2022-11-11T08:41:06;6.40;99.90
2100;DHT22;1055;48.854;9.302;2022-11-11T08:43:32;6.50;99.90
2100;DHT22;1055;48.854;9.302;2022-11-11T08:46:02;6.50;99.90
2100;DHT22;1055;48.854;9.302;2022-11-11T08:48:30;6.80;99.90
2100;DHT22;1055;48.854;9.302;2022-11-11T08:50:56;6.80;99.90
2100;DHT22;1055;48.854;9.302;2022-11-11T08:53:21;6.80;99.90
2100;DHT22;1055;48.854;9.302;2022-11-11T08:55:47;7.10;99.90
2100;DHT22;1055;48.854;9.302;2022-11-11T08:58:13;7.30;99.90
2100;DHT22;1055;48.854;9.302;2022-11-11T09:00:38;7.80;99.90
2100;DHT22;1055;48.854;9.302;2022-11-11T09:03:09;8.00;99.90
2100;DHT22;1055;48.854;9.302;2022-11-11T09:05:39;8.10;99.90
2100;DHT22;1055;48.854;9.302;2022-11-11T09:08:06;8.30;99.90
2100;DHT22;1055;48.854;9.302;2022-11-11T09:10:36;8.00;99.90
2100;DHT22;1055;48.854;9.302;2022-11-11T09:13:02;8.00;99.90
2100;DHT22;1055;48.854;9.302;2022-11-11T09:15:28;8.20;99.90
2100;DHT22;1055;48.854;9.302;2022-11-11T09:17:54;8.40;99.90
2100;DHT22;1055;48.854;9.302;2022-11-11T09:20:20;8.40;99.90
2100;DHT22;1055;48.854;9.302;2022-11-11T09:22:47;8.30;99.90
2100;DHT22;1055;48.854;9.302;2022-11-11T09:25:13;8.40;99.90
2100;DHT22;1055;48.854;9.302;2022-11-11T09:27:40;8.50;99.90
2100;DHT22;1055;48.854;9.302;2022-11-11T09:30:07;8.50;99.90
2100;DHT22;1055;48.854;9.302;2022-11-11T09:32:33;8.40;99.90
2100;DHT22;1055;48.854;9.302;2022-11-11T09:34:59;8.30;99.90
2100;DHT22;1055;48.854;9.302;2022-11-11T09:37:25;8.40;99.90
2100;DHT22;1055;48.854;9.302;2022-11-11T09:39:51;8.40;99.90
2100;DHT22;1055;48.854;9.302;2022-11-11T09:42:43;8.50;99.90
2100;DHT22;1055;48.854;9.302;2022-11-11T09:51:19;8.90;99.90
2100;DHT22;1055;48.854;9.302;2022-11-11T09:53:53;8.90;99.90
2100;DHT22;1055;48.854;9.302;2022-11-11T09:56:23;9.00;99.90
2100;DHT22;1055;48.854;9.302;2022-11-11T09:59:27;9.20;99.90
2100;DHT22;1055;48.854;9.302;2022-11-11T10:01:58;9.30;99.90
2100;DHT22;1055;48.854;9.302;2022-11-11T10:04:36;9.40;99.90
2100;DHT22;1055;48.854;9.302;2022-11-11T10:07:13;9.30;99.90
2100;DHT22;1055;48.854;9.302;2022-11-11T10:10:09;9.50;99.90
2100;DHT22;1055;48.854;9.302;2022-11-11T10:12:46;9.70;99.90
2100;DHT22;1055;48.854;9.302;2022-11-11T10:15:14;9.70;99.90
2100;DHT22;1055;48.854;9.302;2022-11-11T10:18:28;9.90;99.90
2100;DHT22;1055;48.854;9.302;2022-11-11T10:20:40;10.10;99.90
2100;DHT22;1055;48.854;9.302;2022-11-11T10:23:15;10.40;99.90
2100;DHT22;1055;48.854;9.302;2022-11-11T10:26:04;10.50;99.90
2100;DHT22;1055;48.854;9.302;2022-11-11T10:28:35;10.60;99.90
2100;DHT22;1055;48.854;9.302;2022-11-11T10:31:04;10.70;99.90
2100;DHT22;1055;48.854;9.302;2022-11-11T10:36:51;10.40;99.90
2100;DHT22;1055;48.854;9.302;2022-11-11T10:40:16;10.60;99.90
2100;DHT22;1055;48.854;9.302;2022-11-11T10:42:16;10.50;99.90
2100;DHT22;1055;48.854;9.302;2022-11-11T10:44:42;10.50;99.90
2100;DHT22;1055;48.854;9.302;2022-11-11T10:49:58;10.70;99.90
2100;DHT22;1055;48.854;9.302;2022-11-11T10:52:38;10.70;99.90
2100;DHT22;1055;48.854;9.302;2022-11-11T10:55:40;11.00;99.90
2100;DHT22;1055;48.854;9.302;2022-11-11T10:58:31;11.00;99.90
2100;DHT22;1055;48.854;9.302;2022-11-11T11:01:00;10.90;99.90
2100;DHT22;1055;48.854;9.302;2022-11-11T11:03:33;11.00;99.90
2100;DHT22;1055;48.854;9.302;2022-11-11T11:06:15;11.10;99.90
2100;DHT22;1055;48.854;9.302;2022-11-11T11:08:53;11.20;99.90
2100;DHT22;1055;48.854;9.302;2022-11-11T11:11:30;11.10;99.90
2100;DHT22;1055;48.854;9.302;2022-11-11T11:14:14;11.10;99.90
2100;DHT22;1055;48.854;9.302;2022-11-11T11:16:47;11.30;99.90
2100;DHT22;1055;48.854;9.302;2022-11-11T11:21:55;11.50;99.90
2100;DHT22;1055;48.854;9.302;2022-11-11T11:24:32;11.60;99.90
2100;DHT22;1055;48.854;9.302;2022-11-11T11:27:06;11.70;99.90
2100;DHT22;1055;48.854;9.302;2022-11-11T11:29:39;11.70;99.90
2100;DHT22;1055;48.854;9.302;2022-11-11T11:32:30;11.60;99.90
2100;DHT22;1055;48.854;9.302;2022-11-11T11:34:56;11.80;99.90
2100;DHT22;1055;48.854;9.302;2022-11-11T11:37:24;12.10;99.90
2100;DHT22;1055;48.854;9.302;2022-11-11T11:40:05;12.10;99.90
2100;DHT22;1055;48.854;9.302;2022-11-11T11:44:57;11.90;99.90
2100;DHT22;1055;48.854;9.302;2022-11-11T11:50:30;12.10;99.90
2100;DHT22;1055;48.854;9.302;2022-11-11T11:59:05;12.60;99.90
2100;DHT22;1055;48.854;9.302;2022-11-11T12:07:10;13.00;99.90
2100;DHT22;1055;48.854;9.302;2022-11-11T12:14:55;13.10;99.90
2100;DHT22;1055;48.854;9.302;2022-11-11T12:17:27;13.30;99.90
2100;DHT22;1055;48.854;9.302;2022-11-11T12:22:47;13.40;99.90
2100;DHT22;1055;48.854;9.302;2022-11-11T12:30:49;13.60;99.90
2100;DHT22;1055;48.854;9.302;2022-11-11T12:36:45;13.90;99.90
2100;DHT22;1055;48.854;9.302;2022-11-11T12:42:06;14.20;99.90
2100;DHT22;1055;48.854;9.302;2022-11-11T12:44:47;14.20;99.90
2100;DHT22;1055;48.854;9.302;2022-11-11T12:47:26;14.00;99.90
2100;DHT22;1055;48.854;9.302;2022-11-11T12:50:14;13.70;99.90
2100;DHT22;1055;48.854;9.302;2022-11-11T12:53:13;13.70;99.90
2100;DHT22;1055;48.854;9.302;2022-11-11T12:58:33;14.40;99.90
2100;DHT22;1055;48.854;9.302;2022-11-11T13:04:27;14.70;99.90
2100;DHT22;1055;48.854;9.302;2022-11-11T13:15:26;14.30;99.90
2100;DHT22;1055;48.854;9.302;2022-11-11T13:17:52;14.50;99.90
2100;DHT22;1055;48.854;9.302;2022-11-11T13:20:27;14.60;99.90
2100;DHT22;1055;48.854;9.302;2022-11-11T13:23:00;15.00;99.90
2100;DHT22;1055;48.854;9.302;2022-11-11T13:25:29;15.00;99.90
2100;DHT22;1055;48.854;9.302;2022-11-11T13:30:59;15.50;99.90
2100;DHT22;1055;48.854;9.302;2022-11-11T13:33:38;15.60;99.90
2100;DHT22;1055;48.854;9.302;2022-11-11T13:36:07;15.40;99.90
2100;DHT22;1055;48.854;9.302;2022-11-11T13:41:11;15.60;99.90
2100;DHT22;1055;48.854;9.302;2022-11-11T13:43:44;15.90;99.90
2100;DHT22;1055;48.854;9.302;2022-11-11T13:48:57;16.10;99.90
2100;DHT22;1055;48.854;9.302;2022-11-11T13:54:01;16.30;99.90
2100;DHT22;1055;48.854;9.302;2022-11-11T13:56:45;16.00;99.90
2100;DHT22;1055;48.854;9.302;2022-11-11T13:59:24;16.10;99.90
2100;DHT22;1055;48.854;9.302;2022-11-11T14:07:55;16.40;99.90
2100;DHT22;1055;48.854;9.302;2022-11-11T14:15:56;16.70;99.90
2100;DHT22;1055;48.854;9.302;2022-11-11T14:20:52;16.90;99.90
2100;DHT22;1055;48.854;9.302;2022-11-11T14:25:44;17.00;99.90
2100;DHT22;1055;48.854;9.302;2022-11-11T14:30:57;17.00;99.90
2100;DHT22;1055;48.854;9.302;2022-11-11T14:41:51;17.10;99.90
2100;DHT22;1055;48.854;9.302;2022-11-11T14:49:51;17.10;99.90
2100;DHT22;1055;48.854;9.302;2022-11-11T14:52:37;17.20;99.90
2100;DHT22;1055;48.854;9.302;2022-11-11T15:03:14;16.80;99.90
2100;DHT22;1055;48.854;9.302;2022-11-11T15:22:41;16.70;99.90
2100;DHT22;1055;48.854;9.302;2022-11-11T15:27:56;16.50;99.90
2100;DHT22;1055;48.854;9.302;2022-11-11T15:30:44;16.40;99.90
2100;DHT22;1055;48.854;9.302;2022-11-11T15:33:24;16.40;99.90
2100;DHT22;1055;48.854;9.302;2022-11-11T15:38:40;16.00;99.90
2100;DHT22;1055;48.854;9.302;2022-11-11T15:41:31;15.90;99.90
2100;DHT22;1055;48.854;9.302;2022-11-11T15:43:58;15.80;99.90
2100;DHT22;1055;48.854;9.302;2022-11-11T15:46:27;15.70;99.90
2100;DHT22;1055;48.854;9.302;2022-11-11T15:48:54;15.70;99.90
2100;DHT22;1055;48.854;9.302;2022-11-11T15:51:30;15.60;99.90
2100;DHT22;1055;48.854;9.302;2022-11-11T15:56:41;15.20;99.90
2100;DHT22;1055;48.854;9.302;2022-11-11T15:59:28;15.10;99.90
2100;DHT22;1055;48.854;9.302;2022-11-11T16:01:55;15.10;99.90
2100;DHT22;1055;48.854;9.302;2022-11-11T16:04:23;14.90;99.90
2100;DHT22;1055;48.854;9.302;2022-11-11T16:06:49;14.80;99.90
2100;DHT22;1055;48.854;9.302;2022-11-11T16:09:20;14.70;99.90
2100;DHT22;1055;48.854;9.302;2022-11-11T16:11:48;14.60;99.90
2100;DHT22;1055;48.854;9.302;2022-11-11T16:14:36;14.40;99.90
2100;DHT22;1055;48.854;9.302;2022-11-11T16:17:05;14.30;99.90
2100;DHT22;1055;48.854;9.302;2022-11-11T16:19:38;14.30;99.90
2100;DHT22;1055;48.854;9.302;2022-11-11T16:22:26;14.30;99.90
2100;DHT22;1055;48.854;9.302;2022-11-11T16:24:54;14.30;99.90
2100;DHT22;1055;48.854;9.302;2022-11-11T16:27:25;14.30;99.90
2100;DHT22;1055;48.854;9.302;2022-11-11T16:29:52;14.20;99.90
2100;DHT22;1055;48.854;9.302;2022-11-11T16:34:51;13.90;99.90
2100;DHT22;1055;48.854;9.302;2022-11-11T16:37:18;13.80;99.90
2100;DHT22;1055;48.854;9.302;2022-11-11T16:39:45;13.70;99.90
2100;DHT22;1055;48.854;9.302;2022-11-11T16:42:22;13.40;99.90
2100;DHT22;1055;48.854;9.302;2022-11-11T16:44:56;13.30;99.90
2100;DHT22;1055;48.854;9.302;2022-11-11T16:55:46;13.20;99.90
2100;DHT22;1055;48.854;9.302;2022-11-11T16:58:18;13.20;99.90
2100;DHT22;1055;48.854;9.302;2022-11-11T17:00:45;13.10;99.90
2100;DHT22;1055;48.854;9.302;2022-11-11T17:03:22;13.10;99.90
2100;DHT22;1055;48.854;9.302;2022-11-11T17:06:01;13.00;99.90
2100;DHT22;1055;48.854;9.302;2022-11-11T17:08:42;13.00;99.90
2100;DHT22;1055;48.854;9.302;2022-11-11T17:11:10;13.00;99.90
2100;DHT22;1055;48.854;9.302;2022-11-11T17:13:36;12.90;99.90
2100;DHT22;1055;48.854;9.302;2022-11-11T17:16:04;12.60;99.90
2100;DHT22;1055;48.854;9.302;2022-11-11T17:18:39;12.10;99.90
2100;DHT22;1055;48.854;9.302;2022-11-11T17:21:05;11.50;99.90
2100;DHT22;1055;48.854;9.302;2022-11-11T17:23:30;11.50;99.90
2100;DHT22;1055;48.854;9.302;2022-11-11T17:25:59;11.30;99.90
2100;DHT22;1055;48.854;9.302;2022-11-11T17:28:34;11.30;99.90
2100;DHT22;1055;48.854;9.302;2022-11-11T17:31:08;11.30;99.90
2100;DHT22;1055;48.854;9.302;2022-11-11T17:33:33;11.30;99.90
2100;DHT22;1055;48.854;9.302;2022-11-11T17:35:59;11.10;99.90
2100;DHT22;1055;48.854;9.302;2022-11-11T17:38:26;11.10;99.90
2100;DHT22;1055;48.854;9.302;2022-11-11T17:40:52;10.80;99.90
2100;DHT22;1055;48.854;9.302;2022-11-11T17:43:18;10.30;99.90
2100;DHT22;1055;48.854;9.302;2022-11-11T17:45:43;10.20;99.90
2100;DHT22;1055;48.854;9.302;2022-11-11T17:48:09;9.90;99.90
2100;DHT22;1055;48.854;9.302;2022-11-11T17:50:37;9.70;99.90
2100;DHT22;1055;48.854;9.302;2022-11-11T17:53:04;9.50;99.90
2100;DHT22;1055;48.854;9.302;2022-11-11T17:55:30;9.40;99.90
2100;DHT22;1055;48.854;9.302;2022-11-11T17:57:57;9.40;99.90
2100;DHT22;1055;48.854;9.302;2022-11-11T18:00:23;9.50;99.90
2100;DHT22;1055;48.854;9.302;2022-11-11T18:02:48;9.50;99.90
2100;DHT22;1055;48.854;9.302;2022-11-11T18:05:14;9.80;99.90
2100;DHT22;1055;48.854;9.302;2022-11-11T18:07:40;9.90;99.90
2100;DHT22;1055;48.854;9.302;2022-11-11T18:10:06;10.10;99.90
2100;DHT22;1055;48.854;9.302;2022-11-11T18:12:32;10.10;99.90
2100;DHT22;1055;48.854;9.302;2022-11-11T18:14:58;10.10;99.90
2100;DHT22;1055;48.854;9.302;2022-11-11T18:17:23;10.30;99.90
2100;DHT22;1055;48.854;9.302;2022-11-11T18:19:49;9.90;99.90
2100;DHT22;1055;48.854;9.302;2022-11-11T18:22:15;9.60;99.90
2100;DHT22;1055;48.854;9.302;2022-11-11T18:24:40;9.40;99.90
2100;DHT22;1055;48.854;9.302;2022-11-11T18:27:06;9.50;99.90
2100;DHT22;1055;48.854;9.302;2022-11-11T18:29:31;9.70;99.90
2100;DHT22;1055;48.854;9.302;2022-11-11T18:31:58;9.60;99.90
2100;DHT22;1055;48.854;9.302;2022-11-11T18:34:24;9.50;99.90
2100;DHT22;1055;48.854;9.302;2022-11-11T18:36:51;9.20;99.90
2100;DHT22;1055;48.854;9.302;2022-11-11T18:39:16;8.80;99.90
2100;DHT22;1055;48.854;9.302;2022-11-11T18:41:42;8.80;99.90
2100;DHT22;1055;48.854;9.302;2022-11-11T18:44:08;9.00;99.90
2100;DHT22;1055;48.854;9.302;2022-11-11T18:46:34;8.80;99.90
2100;DHT22;1055;48.854;9.302;2022-11-11T18:49:01;8.70;99.90
2100;DHT22;1055;48.854;9.302;2022-11-11T18:51:28;8.60;99.90
2100;DHT22;1055;48.854;9.302;2022-11-11T18:53:55;8.60;99.90
2100;DHT22;1055;48.854;9.302;2022-11-11T18:56:23;8.80;99.90
2100;DHT22;1055;48.854;9.302;2022-11-11T18:58:58;8.70;99.90
2100;DHT22;1055;48.854;9.302;2022-11-11T19:01:27;8.70;99.90
2100;DHT22;1055;48.854;9.302;2022-11-11T19:03:59;8.60;99.90
2100;DHT22;1055;48.854;9.302;2022-11-11T19:06:26;8.60;99.90
2100;DHT22;1055;48.854;9.302;2022-11-11T19:09:11;8.70;99.90
2100;DHT22;1055;48.854;9.302;2022-11-11T19:11:40;8.60;99.90
2100;DHT22;1055;48.854;9.302;2022-11-11T19:14:06;8.90;99.90
2100;DHT22;1055;48.854;9.302;2022-11-11T19:16:32;9.10;99.90
2100;DHT22;1055;48.854;9.302;2022-11-11T19:18:59;9.10;99.90
2100;DHT22;1055;48.854;9.302;2022-11-11T19:21:29;9.10;99.90
2100;DHT22;1055;48.854;9.302;2022-11-11T19:23:56;9.40;99.90